Time;durP1;ratioP1;P1;durP2;ratioP2;P2;SDS_P1;SDS_P2;PMS_P1;PMS_P2;Temp;Humidity;BMP_temperature;BMP_pressure;BME280_temperature;BME280_humidity;BME280_pressure;Samples;Min_cycle;Max_cycle;Signal;HPM_P1;HPM_P2
2021/11/09 00:00:15;;;;;;;28.08;10.52;;;2.80;99.90;;;;;;5136266;27;20030;-76
2021/11/09 00:02:43;;;;;;;21.85;9.60;;;2.90;99.90;;;;;;5136021;27;20026;-77
2021/11/09 00:05:12;;;;;;;19.70;7.53;;;2.90;99.90;;;;;;5135842;27;20057;-76
2021/11/09 00:07:50;;;;;;;12.70;6.25;;;2.90;99.90;;;;;;5136151;27;20046;-76
2021/11/09 00:10:16;;;;;;;14.65;6.35;;;2.90;99.90;;;;;;5135939;27;20029;-77
2021/11/09 00:12:46;;;;;;;11.18;5.43;;;2.80;99.90;;;;;;5136114;27;20051;-76
2021/11/09 00:15:15;;;;;;;9.35;4.57;;;2.90;99.90;;;;;;5135647;27;20113;-76
2021/11/09 00:17:42;;;;;;;9.20;4.80;;;3.00;99.90;;;;;;5154700;27;20027;-76
2021/11/09 00:20:18;;;;;;;22.10;6.93;;;3.00;99.90;;;;;;5136143;27;20156;-76
2021/11/09 00:22:45;;;;;;;13.23;4.95;;;3.00;99.90;;;;;;5136219;27;20027;-77
2021/11/09 00:25:11;;;;;;;10.32;4.88;;;2.90;99.90;;;;;;5154676;27;20058;-76
2021/11/09 00:27:38;;;;;;;9.82;4.57;;;2.90;99.90;;;;;;5154742;27;20616;-76
2021/11/09 00:30:05;;;;;;;11.30;4.60;;;2.90;99.90;;;;;;5135848;27;20049;-76
2021/11/09 00:32:31;;;;;;;9.57;3.92;;;2.90;99.90;;;;;;5135864;27;20042;-76
2021/11/09 00:34:57;;;;;;;;;;;2.90;99.90;;;;;;5171472;27;20089;-77
2021/11/09 00:37:24;;;;;;;9.52;3.65;;;2.90;99.90;;;;;;5136138;27;19911;-77
2021/11/09 00:39:49;;;;;;;9.30;4.28;;;2.90;99.90;;;;;;5155192;27;20027;-76
2021/11/09 00:42:15;;;;;;;;;;;2.90;99.90;;;;;;5136541;27;20443;-76
2021/11/09 00:44:41;;;;;;;7.00;3.65;;;2.90;99.90;;;;;;5154687;27;19906;-76
2021/11/09 00:47:08;;;;;;;10.02;4.90;;;2.90;99.90;;;;;;5135688;27;20505;-77
2021/11/09 00:49:34;;;;;;;9.90;4.78;;;2.70;99.90;;;;;;5134787;27;20573;-77
2021/11/09 00:52:01;;;;;;;27.90;8.00;;;2.60;99.90;;;;;;5154555;27;20091;-76
2021/11/09 00:54:28;;;;;;;31.85;10.93;;;2.60;99.90;;;;;;5155085;27;20030;-76
2021/11/09 00:56:54;;;;;;;29.38;10.50;;;2.60;99.90;;;;;;5135928;27;20035;-76
2021/11/09 00:59:20;;;;;;;33.97;11.88;;;2.50;99.90;;;;;;5154627;27;20030;-76
2021/11/09 01:01:46;;;;;;;;;;;2.50;99.90;;;;;;5154730;27;20023;-76
2021/11/09 01:04:12;;;;;;;38.58;12.57;;;2.40;99.90;;;;;;5136080;27;19907;-76
2021/11/09 01:06:37;;;;;;;;;;;2.50;99.90;;;;;;5136484;27;20027;-76
2021/11/09 01:09:04;;;;;;;28.15;10.13;;;2.40;99.90;;;;;;5154190;27;19914;-76
2021/11/09 01:11:30;;;;;;;11.63;5.00;;;2.50;99.90;;;;;;5135904;27;20022;-76
2021/11/09 01:13:56;;;;;;;;;;;2.50;99.90;;;;;;5136204;27;20019;-76
2021/11/09 01:16:23;;;;;;;13.10;4.15;;;2.60;99.90;;;;;;5136157;27;20379;-76
2021/11/09 01:18:51;;;;;;;11.48;3.83;;;2.70;99.90;;;;;;5154743;27;20446;-76
2021/11/09 01:21:18;;;;;;;8.82;3.58;;;2.70;99.90;;;;;;5135638;27;20498;-76
2021/11/09 01:23:46;;;;;;;10.90;3.50;;;2.80;99.90;;;;;;5155011;27;20038;-76
2021/11/09 01:26:13;;;;;;;7.57;3.38;;;2.90;99.90;;;;;;5154997;27;20018;-77
2021/11/09 01:28:39;;;;;;;5.90;2.92;;;2.80;99.90;;;;;;5136732;27;20496;-77
2021/11/09 01:31:08;;;;;;;12.05;3.03;;;2.90;99.90;;;;;;5135978;27;20055;-77
2021/11/09 01:33:35;;;;;;;4.90;2.30;;;2.90;99.90;;;;;;5136690;27;20027;-76
2021/11/09 01:36:01;;;;;;;8.15;3.00;;;3.10;99.90;;;;;;5137725;27;20513;-77
2021/11/09 01:38:27;;;;;;;7.60;2.90;;;3.20;99.90;;;;;;5156562;27;20045;-77
2021/11/09 01:40:53;;;;;;;;;;;3.20;99.90;;;;;;5136182;27;20015;-77
2021/11/09 01:43:22;;;;;;;5.22;3.03;;;3.30;99.90;;;;;;5133834;27;19994;-76
2021/11/09 01:45:48;;;;;;;8.77;3.95;;;3.30;99.90;;;;;;5133280;27;20026;-77
2021/11/09 01:48:15;;;;;;;8.95;4.28;;;3.20;99.90;;;;;;5133432;27;20129;-77
2021/11/09 01:50:47;;;;;;;11.82;4.38;;;3.10;99.90;;;;;;5133175;27;20231;-77
2021/11/09 01:53:13;;;;;;;20.15;7.07;;;3.10;99.90;;;;;;5133415;27;20103;-76
2021/11/09 01:55:39;;;;;;;;;;;2.90;99.90;;;;;;5133788;27;20062;-77
2021/11/09 01:58:08;;;;;;;14.95;4.90;;;2.90;99.90;;;;;;5133271;27;19918;-76
2021/11/09 02:00:46;;;;;;;10.23;3.10;;;2.90;99.90;;;;;;5151915;27;20102;-75
2021/11/09 02:03:12;;;;;;;9.02;3.97;;;2.80;99.90;;;;;;5133473;27;20482;-77
2021/11/09 02:05:38;;;;;;;;;;;2.80;99.90;;;;;;5134589;27;20031;-76
2021/11/09 02:08:05;;;;;;;18.38;6.22;;;2.70;99.90;;;;;;5151879;27;19913;-76
2021/11/09 02:10:34;;;;;;;14.23;5.72;;;2.80;99.90;;;;;;5133113;27;20395;-77
2021/11/09 02:13:00;;;;;;;21.45;6.47;;;2.90;99.90;;;;;;5133256;27;20030;-77
2021/11/09 02:15:26;;;;;;;;;;;2.90;99.90;;;;;;5152401;27;20102;-75
2021/11/09 02:17:52;;;;;;;13.00;5.10;;;2.90;99.90;;;;;;5133214;27;19910;-77
2021/11/09 02:20:19;;;;;;;;;;;2.80;99.90;;;;;;5168683;27;20114;-76
2021/11/09 02:22:45;;;;;;;8.25;3.40;;;2.90;99.90;;;;;;5151845;27;19914;-76
2021/11/09 02:25:13;;;;;;;7.03;3.63;;;2.70;99.90;;;;;;5133482;27;20037;-76
2021/11/09 02:27:40;;;;;;;7.80;3.72;;;2.80;99.90;;;;;;5152158;27;20019;-76
2021/11/09 02:30:08;;;;;;;8.18;3.00;;;2.80;99.90;;;;;;5133252;27;20027;-74
2021/11/09 02:32:34;;;;;;;5.18;2.70;;;2.70;99.90;;;;;;5133305;27;20018;-76
2021/11/09 02:34:59;;;;;;;;;;;2.70;99.90;;;;;;5133817;27;20083;-77
2021/11/09 02:37:25;;;;;;;13.95;5.22;;;2.60;99.90;;;;;;5133484;27;20469;-76
2021/11/09 02:39:51;;;;;;;;;;;2.60;99.90;;;;;;5133877;27;20490;-76
2021/11/09 02:42:19;;;;;;;9.13;4.70;;;2.50;99.90;;;;;;5133418;27;19918;-76
2021/11/09 02:44:55;;;;;;;14.13;5.68;;;2.50;99.90;;;;;;5133098;27;20142;-77
2021/11/09 02:47:24;;;;;;;6.53;3.22;;;2.60;99.90;;;;;;5133369;27;20033;-76
2021/11/09 02:52:22;;;;;;;8.45;2.33;;;2.70;99.90;;;;;;5152132;27;20018;-76
2021/11/09 02:54:51;;;;;;;5.82;2.38;;;2.70;99.90;;;;;;5133294;27;20054;-76
2021/11/09 02:57:28;;;;;;;4.90;2.65;;;2.80;99.90;;;;;;5133080;27;20559;-77
2021/11/09 03:10:19;;;;;;;7.82;3.60;;;2.60;99.90;;;;;;5152285;27;20082;-77
2021/11/09 03:12:45;;;;;;;11.30;4.63;;;2.50;99.90;;;;;;5137106;27;20486;-76
2021/11/09 03:15:12;;;;;;;;;;;2.50;99.90;;;;;;5138528;27;20042;-76
2021/11/09 03:17:59;;;;;;;12.18;5.40;;;2.40;99.90;;;;;;5137359;27;19911;-77
2021/11/09 03:45:11;;;;;;;12.65;4.13;;;2.30;99.90;;;;;;5156243;27;20045;-77
2021/11/09 03:47:43;;;;;;;7.35;2.88;;;2.30;99.90;;;;;;5137131;27;20544;-76
2021/11/09 03:50:10;;;;;;;7.95;2.92;;;2.30;99.90;;;;;;5156499;27;20051;-77
2021/11/09 03:55:19;;;;;;;9.88;3.53;;;2.50;99.90;;;;;;5156477;27;20027;-77
2021/11/09 03:58:01;;;;;;;8.75;4.35;;;2.40;99.90;;;;;;5137640;27;20027;-76
2021/11/09 04:00:35;;;;;;;8.73;4.05;;;2.30;99.90;;;;;;5137565;27;20027;-76
2021/11/09 04:03:14;;;;;;;10.57;5.25;;;2.30;99.90;;;;;;5156245;27;20026;-76
2021/11/09 04:05:43;;;;;;;56.47;22.02;;;2.30;99.90;;;;;;5138288;27;20031;-76
2021/11/09 04:08:33;;;;;;;102.05;41.33;;;2.20;99.90;;;;;;5139406;27;20543;-77
2021/11/09 04:11:08;;;;;;;37.45;16.30;;;2.20;99.90;;;;;;5136592;27;20031;-76
2021/11/09 04:13:55;;;;;;;33.85;13.55;;;2.10;99.90;;;;;;5135680;27;20026;-76
2021/11/09 04:16:39;;;;;;;41.85;17.30;;;2.10;99.90;;;;;;5135028;27;20057;-76
2021/11/09 04:19:31;;;;;;;38.92;14.07;;;2.10;99.90;;;;;;5135109;27;20048;-77
2021/11/09 04:53:38;;;;;;;37.95;17.90;;;2.20;99.90;;;;;;5153859;27;20080;-75
2021/11/09 05:09:44;;;;;;;7.63;3.15;;;2.60;99.90;;;;;;5153439;27;20429;-76
2021/11/09 05:12:10;;;;;;;16.13;6.57;;;2.80;99.90;;;;;;5134611;27;20051;-76
2021/11/09 05:14:36;;;;;;;;;;;3.00;99.90;;;;;;5134842;27;20071;-76
2021/11/09 05:17:03;;;;;;;21.02;7.80;;;3.00;99.90;;;;;;5133612;27;19915;-76
2021/11/09 05:19:30;;;;;;;19.88;8.18;;;3.00;99.90;;;;;;5134297;27;20031;-76
2021/11/09 05:21:56;;;;;;;8.82;3.67;;;3.00;99.90;;;;;;5134520;27;20034;-75
2021/11/09 05:24:22;;;;;;;9.00;4.03;;;3.10;99.90;;;;;;5154074;27;20029;-76
2021/11/09 05:26:48;;;;;;;;;;;3.10;99.90;;;;;;5134776;27;20030;-76
2021/11/09 05:29:15;;;;;;;15.85;6.45;;;3.20;99.90;;;;;;5134407;27;19950;-76
2021/11/09 05:31:41;;;;;;;17.27;5.68;;;3.20;99.90;;;;;;5134547;27;20022;-75
2021/11/09 05:34:07;;;;;;;;;;;3.20;99.90;;;;;;5134733;27;20027;-76
2021/11/09 05:36:40;;;;;;;36.63;12.27;;;3.10;99.90;;;;;;5152128;27;20423;-75
2021/11/09 05:39:14;;;;;;;41.95;14.27;;;3.10;99.90;;;;;;5152909;27;20105;-76
2021/11/09 05:41:42;;;;;;;53.67;17.00;;;3.10;99.90;;;;;;5133924;27;20031;-77
2021/11/09 05:44:08;;;;;;;61.35;21.17;;;3.00;99.90;;;;;;5132979;27;20019;-75
2021/11/09 05:46:44;;;;;;;;;;;3.00;99.90;;;;;;5134536;27;20403;-76
2021/11/09 05:49:11;;;;;;;65.45;22.80;;;3.00;99.90;;;;;;5152403;27;19973;-76
2021/11/09 05:51:40;;;;;;;83.00;31.25;;;2.90;99.90;;;;;;5133859;27;20022;-75
2021/11/09 05:54:05;;;;;;;117.82;45.13;;;2.90;99.90;;;;;;5133743;27;20019;-78
2021/11/09 05:56:31;;;;;;;;;;;2.90;99.90;;;;;;5154281;27;20030;-76
2021/11/09 05:58:58;;;;;;;58.30;24.25;;;3.00;99.90;;;;;;5135395;27;20366;-77
2021/11/09 06:01:23;;;;;;;56.80;25.50;;;2.90;99.90;;;;;;5152480;27;20026;-77
2021/11/09 06:03:49;;;;;;;;;;;3.00;99.90;;;;;;5154221;27;20030;-78
2021/11/09 06:06:15;;;;;;;102.07;42.42;;;2.90;99.90;;;;;;5135489;27;19959;-77
2021/11/09 06:08:42;;;;;;;82.35;36.13;;;3.00;99.90;;;;;;5135233;27;20027;-77
2021/11/09 06:11:08;;;;;;;73.25;32.42;;;3.00;99.90;;;;;;5135882;27;20483;-77
2021/11/09 06:13:34;;;;;;;69.35;27.27;;;3.00;99.90;;;;;;5135029;27;20034;-78
2021/11/09 06:15:59;;;;;;;;;;;3.00;99.90;;;;;;5154527;27;20486;-77
2021/11/09 06:18:25;;;;;;;18.00;7.82;;;3.10;99.90;;;;;;5135794;27;19914;-77
2021/11/09 06:20:51;;;;;;;;;;;3.40;99.90;;;;;;5169916;27;20026;-78
2021/11/09 06:23:17;;;;;;;15.52;7.65;;;3.60;99.90;;;;;;5134886;27;19928;-78
2021/11/09 06:25:44;;;;;;;16.20;6.40;;;4.00;99.90;;;;;;5154310;27;20086;-78
2021/11/09 06:28:14;;;;;;;11.13;5.60;;;4.50;99.90;;;;;;5134886;27;20050;-76
2021/11/09 06:30:40;;;;;;;26.65;9.82;;;5.00;99.90;;;;;;5136706;27;20037;-77
2021/11/09 06:33:05;;;;;;;;;;;5.60;99.90;;;;;;5135860;27;20026;-75
2021/11/09 06:35:31;;;;;;;20.98;9.10;;;6.10;99.90;;;;;;5153958;27;20021;-75
2021/11/09 06:37:57;;;;;;;33.15;15.05;;;6.70;99.90;;;;;;5133974;27;20035;-76
2021/11/09 06:40:23;;;;;;;;;;;7.20;99.90;;;;;;5153961;27;20027;-75
2021/11/09 06:42:48;;;;;;;26.75;13.20;;;7.70;99.90;;;;;;5134421;27;19903;-75
2021/11/09 06:45:14;;;;;;;;;;;8.30;99.90;;;;;;5151253;27;20031;-75
2021/11/09 06:47:41;;;;;;;23.35;11.63;;;8.80;99.90;;;;;;5131862;27;19947;-75
2021/11/09 06:50:08;;;;;;;27.23;12.23;;;9.00;99.90;;;;;;5132084;27;20050;-76
2021/11/09 06:52:35;;;;;;;27.15;12.82;;;9.20;99.90;;;;;;5150335;27;20031;-77
2021/11/09 06:55:02;;;;;;;22.25;11.07;;;9.30;99.90;;;;;;5151909;27;20091;-76
2021/11/09 06:57:27;;;;;;;26.13;9.80;;;9.50;99.90;;;;;;5131456;27;20078;-76
2021/11/09 06:59:53;;;;;;;;;;;9.60;99.90;;;;;;5132408;27;20054;-77
2021/11/09 07:02:19;;;;;;;15.93;9.60;;;9.70;99.90;;;;;;5133039;27;19914;-77
2021/11/09 07:04:45;;;;;;;25.33;12.43;;;9.80;99.90;;;;;;5150981;27;20029;-77
2021/11/09 07:07:11;;;;;;;;;;;9.90;99.90;;;;;;5132411;27;20027;-76
2021/11/09 07:09:36;;;;;;;23.85;13.63;;;9.90;99.90;;;;;;5131366;27;19907;-77
2021/11/09 07:12:02;;;;;;;;;;;10.00;99.90;;;;;;5131874;27;20027;-78
2021/11/09 07:14:28;;;;;;;19.95;11.00;;;10.10;99.90;;;;;;5131273;27;19903;-76
2021/11/09 07:16:54;;;;;;;;;;;10.10;99.90;;;;;;5131357;27;20485;-78
2021/11/09 07:19:20;;;;;;;24.95;11.65;;;10.30;99.90;;;;;;5131136;27;19907;-78
2021/11/09 07:21:51;;;;;;;;;;;10.50;99.90;;;;;;5131642;27;20104;-77
2021/11/09 07:24:17;;;;;;;41.30;17.70;;;10.70;99.90;;;;;;5131176;27;19903;-78
2021/11/09 07:26:43;;;;;;;58.80;21.20;;;10.70;99.90;;;;;;5131438;27;20019;-77
2021/11/09 07:29:08;;;;;;;;;;;10.80;99.90;;;;;;5150152;27;20480;-77
2021/11/09 07:31:35;;;;;;;39.05;17.10;;;10.80;99.90;;;;;;5131429;27;19933;-78
2021/11/09 07:34:01;;;;;;;33.67;15.73;;;11.00;99.50;;;;;;5150005;27;20046;-78
2021/11/09 07:36:26;;;;;;;;;;;11.30;99.50;;;;;;5150074;27;20066;-76
2021/11/09 07:38:53;;;;;;;28.67;13.50;;;11.60;98.10;;;;;;5131030;27;19909;-78
2021/11/09 07:41:19;;;;;;;34.67;14.73;;;11.90;97.60;;;;;;5131247;27;20034;-76
2021/11/09 07:43:46;;;;;;;28.92;13.68;;;12.20;96.20;;;;;;5131189;27;20106;-77
2021/11/09 07:46:12;;;;;;;28.85;13.75;;;12.70;96.00;;;;;;5131107;27;20022;-76
2021/11/09 07:48:37;;;;;;;31.77;10.38;;;13.00;93.60;;;;;;5149536;27;20031;-78
2021/11/09 07:51:03;;;;;;;;;;;13.30;92.30;;;;;;5131353;27;20129;-76
2021/11/09 07:53:33;;;;;;;18.90;7.90;;;13.60;88.10;;;;;;5130953;27;20435;-76
2021/11/09 07:58:37;;;;;;;14.10;6.25;;;13.70;86.00;;;;;;5151976;27;20041;-76
2021/11/09 08:01:17;;;;;;;8.95;4.38;;;13.90;84.20;;;;;;5134539;27;20036;-77
2021/11/09 08:06:53;;;;;;;9.55;4.70;;;14.50;79.70;;;;;;5117681;27;20105;-77
2021/11/09 08:11:48;;;;;;;9.13;3.63;;;15.40;76.40;;;;;;5153042;27;20033;-78
2021/11/09 08:14:15;;;;;;;8.55;4.30;;;15.80;74.40;;;;;;5153003;27;20386;-78
2021/11/09 08:16:41;;;;;;;9.13;4.72;;;16.30;71.30;;;;;;5134262;27;20115;-78
2021/11/09 08:19:07;;;;;;;11.88;4.57;;;16.50;68.40;;;;;;5134305;27;20027;-77
2021/11/09 08:21:34;;;;;;;9.18;4.50;;;16.70;67.50;;;;;;5134391;27;20076;-78
2021/11/09 08:24:01;;;;;;;10.02;5.60;;;17.00;66.30;;;;;;5152818;27;20443;-78
2021/11/09 08:26:27;;;;;;;9.10;4.75;;;17.40;64.50;;;;;;5134303;27;20531;-77
2021/11/09 08:28:55;;;;;;;11.82;5.55;;;17.60;60.90;;;;;;5134166;27;20019;-77
2021/11/09 08:31:23;;;;;;;13.02;7.35;;;18.00;62.00;;;;;;5152838;27;20103;-78
2021/11/09 08:33:49;;;;;;;13.98;8.25;;;18.30;60.20;;;;;;5134148;27;20023;-77
2021/11/09 08:36:23;;;;;;;14.90;7.80;;;18.40;58.40;;;;;;5168610;27;20542;-77
2021/11/09 08:38:51;;;;;;;16.52;8.70;;;18.50;58.10;;;;;;5133952;27;20018;-77
2021/11/09 08:41:18;;;;;;;15.25;8.50;;;18.50;58.00;;;;;;5152494;27;20476;-77
2021/11/09 08:46:51;;;;;;;16.48;7.38;;;18.60;57.60;;;;;;5087805;28;20024;-77
2021/11/09 08:49:22;;;;;;;14.43;8.52;;;18.80;56.70;;;;;;5070888;28;20521;-78
2021/11/09 08:51:50;;;;;;;15.38;7.60;;;18.90;55.70;;;;;;5121476;27;20414;-78
2021/11/09 08:54:22;;;;;;;23.65;7.63;;;19.10;55.30;;;;;;5133567;27;20030;-78
2021/11/09 09:04:57;;;;;;;10.63;5.93;;;19.00;54.00;;;;;;5152273;27;20034;-77
2021/11/09 09:07:25;;;;;;;9.55;5.40;;;18.50;54.70;;;;;;5152077;27;20023;-78
2021/11/09 09:09:53;;;;;;;14.82;4.25;;;17.90;55.60;;;;;;5132308;27;20030;-77
2021/11/09 09:12:19;;;;;;;11.23;5.28;;;17.30;55.90;;;;;;5133169;27;20027;-78
2021/11/09 09:14:45;;;;;;;6.72;3.80;;;16.90;57.50;;;;;;5133756;27;20041;-77
2021/11/09 09:17:11;;;;;;;9.05;4.20;;;16.40;58.30;;;;;;5133166;27;20050;-78
2021/11/09 09:19:42;;;;;;;8.40;2.33;;;16.00;59.70;;;;;;5133048;27;20019;-77
2021/11/09 09:22:14;;;;;;;7.90;2.80;;;15.70;59.40;;;;;;5151595;27;20035;-78
2021/11/09 09:24:46;;;;;;;8.68;3.58;;;15.30;60.70;;;;;;5132897;27;20030;-79
2021/11/09 09:29:56;;;;;;;8.95;3.60;;;14.80;64.30;;;;;;5151490;27;20042;-77
2021/11/09 09:54:43;;;;;;;8.13;3.25;;;13.20;70.00;;;;;;5151478;27;20038;-77
2021/11/09 09:57:13;;;;;;;8.93;4.57;;;13.20;70.60;;;;;;5132196;27;20045;-79
2021/11/09 09:59:42;;;;;;;12.20;5.05;;;13.10;71.40;;;;;;5132261;27;20027;-75
2021/11/09 10:02:17;;;;;;;9.00;3.80;;;13.00;72.00;;;;;;5149887;27;20072;-76
2021/11/09 10:04:48;;;;;;;15.35;4.03;;;13.00;72.20;;;;;;5131381;27;20163;-75
2021/11/09 10:07:29;;;;;;;10.60;4.00;;;12.90;72.80;;;;;;5149881;27;20027;-77
2021/11/09 10:09:54;;;;;;;9.23;3.88;;;12.90;73.50;;;;;;5149984;27;20049;-78
2021/11/09 10:12:34;;;;;;;;;;;12.80;74.30;;;;;;5150435;27;20402;-77
2021/11/09 10:15:22;;;;;;;13.18;3.53;;;12.80;75.00;;;;;;5131751;27;19909;-76
2021/11/09 10:17:50;;;;;;;8.13;3.50;;;12.80;74.80;;;;;;5132092;27;20043;-80
2021/11/09 10:20:28;;;;;;;7.60;2.72;;;12.70;74.10;;;;;;5150402;27;20030;-78
2021/11/09 10:22:58;;;;;;;6.38;2.78;;;12.70;74.50;;;;;;5131698;27;20030;-76
2021/11/09 10:25:25;;;;;;;7.10;2.58;;;12.70;73.60;;;;;;5131754;27;20146;-80
2021/11/09 10:28:00;;;;;;;6.68;3.28;;;12.80;73.80;;;;;;5131513;27;20770;-76
2021/11/09 10:30:33;;;;;;;6.50;2.97;;;12.80;73.30;;;;;;5131429;27;20019;-78
2021/11/09 10:32:59;;;;;;;9.35;2.75;;;12.80;73.70;;;;;;5131415;27;20078;-77
2021/11/09 10:35:25;;;;;;;;;;;12.70;73.80;;;;;;5132221;27;20430;-77
2021/11/09 10:37:57;;;;;;;3.67;1.65;;;12.70;74.10;;;;;;5131054;27;20176;-77
2021/11/09 10:40:27;;;;;;;5.50;2.30;;;12.60;73.60;;;;;;5131152;27;20642;-78
2021/11/09 10:43:05;;;;;;;7.15;3.15;;;12.70;74.00;;;;;;5131446;27;20410;-75
2021/11/09 10:45:38;;;;;;;5.80;2.15;;;12.70;73.40;;;;;;5131477;27;20029;-77
2021/11/09 10:48:11;;;;;;;14.13;4.47;;;12.60;74.00;;;;;;5131346;27;20515;-78
2021/11/09 10:50:43;;;;;;;5.97;2.20;;;12.70;72.90;;;;;;5150233;27;20098;-76
2021/11/09 11:04:19;;;;;;;11.23;3.42;;;12.50;73.80;;;;;;5150387;27;20489;-78
2021/11/09 11:06:47;;;;;;;;;;;12.50;74.10;;;;;;5150290;27;20019;-76
2021/11/09 11:09:12;;;;;;;4.15;2.15;;;12.50;74.20;;;;;;5131730;27;20713;-80
2021/11/09 11:11:38;;;;;;;;;;;12.50;73.90;;;;;;5131794;27;20091;-78
2021/11/09 11:14:12;;;;;;;7.35;2.55;;;12.50;72.90;;;;;;5131205;27;20358;-79
2021/11/09 11:16:54;;;;;;;7.57;2.40;;;12.50;73.00;;;;;;5131257;27;20525;-78
2021/11/09 11:19:32;;;;;;;4.07;1.90;;;12.50;72.90;;;;;;5131264;27;20022;-77
2021/11/09 11:22:00;;;;;;;4.97;2.33;;;12.50;73.50;;;;;;5149885;27;20042;-77
2021/11/09 11:24:26;;;;;;;6.72;2.97;;;12.50;74.20;;;;;;5150226;27;20077;-79
2021/11/09 11:26:54;;;;;;;6.72;3.10;;;12.50;73.60;;;;;;5131062;27;20027;-77
2021/11/09 11:29:23;;;;;;;7.70;2.60;;;12.50;74.00;;;;;;5131312;27;20513;-77
2021/11/09 11:31:50;;;;;;;7.10;3.42;;;12.50;74.60;;;;;;5131409;27;20521;-78
2021/11/09 11:34:20;;;;;;;9.13;3.65;;;12.50;73.30;;;;;;5153655;27;20436;-79
2021/11/09 11:36:48;;;;;;;10.13;3.58;;;12.50;73.60;;;;;;5134685;27;20546;-79
2021/11/09 11:39:15;;;;;;;7.65;2.90;;;12.50;75.10;;;;;;5153958;27;20023;-79
2021/11/09 11:41:45;;;;;;;7.40;2.50;;;12.50;74.80;;;;;;5135198;27;20327;-77
2021/11/09 11:44:19;;;;;;;11.80;2.83;;;12.50;76.00;;;;;;5135032;27;20026;-77
2021/11/09 11:46:47;;;;;;;7.10;2.70;;;12.60;74.40;;;;;;5134926;27;20026;-76
2021/11/09 11:49:16;;;;;;;9.00;3.15;;;12.50;75.90;;;;;;5153630;27;20023;-77
2021/11/09 11:51:45;;;;;;;6.90;2.60;;;12.50;74.50;;;;;;5134812;27;20461;-78
2021/11/09 11:54:19;;;;;;;7.30;2.72;;;12.40;75.10;;;;;;5135042;27;20078;-78
2021/11/09 11:56:45;;;;;;;7.65;2.72;;;12.40;75.10;;;;;;5134537;27;20034;-77
2021/11/09 11:59:14;;;;;;;;;;;12.40;75.00;;;;;;5153610;27;20034;-77
2021/11/09 12:01:44;;;;;;;5.65;2.35;;;12.40;75.00;;;;;;5134687;27;19933;-78
2021/11/09 12:04:30;;;;;;;6.47;2.45;;;12.40;74.90;;;;;;5134691;27;20454;-77
2021/11/09 12:06:56;;;;;;;6.13;2.22;;;12.30;75.20;;;;;;5152766;27;20058;-77
2021/11/09 12:09:28;;;;;;;;;;;12.40;76.50;;;;;;5135289;27;20427;-78
2021/11/09 12:11:54;;;;;;;8.20;2.55;;;12.50;76.00;;;;;;5134815;27;19907;-77
2021/11/09 12:14:20;;;;;;;;;;;12.40;75.10;;;;;;5134904;27;20026;-77
2021/11/09 12:17:05;;;;;;;48.35;5.90;;;12.40;75.50;;;;;;5134137;27;20357;-77
2021/11/09 12:19:41;;;;;;;7.15;2.38;;;12.40;75.80;;;;;;5134277;27;20030;-79
2021/11/09 12:22:12;;;;;;;13.82;3.30;;;12.40;75.20;;;;;;5134386;27;20126;-77
2021/11/09 12:24:55;;;;;;;10.55;2.42;;;12.50;76.20;;;;;;5153041;27;20061;-77
2021/11/09 12:27:30;;;;;;;13.48;3.72;;;12.40;75.50;;;;;;5134103;27;20113;-80
2021/11/09 12:29:57;;;;;;;6.28;2.50;;;12.40;76.10;;;;;;5152787;27;20367;-78
2021/11/09 12:32:29;;;;;;;6.75;2.15;;;12.40;76.00;;;;;;5134114;27;20026;-77
2021/11/09 12:35:19;;;;;;;5.10;2.13;;;12.50;75.80;;;;;;5134061;27;20030;-77
2021/11/09 12:38:23;;;;;;;9.82;2.47;;;12.50;75.30;;;;;;5134581;27;20039;-77
2021/11/09 12:40:52;;;;;;;5.40;1.60;;;12.50;74.80;;;;;;5151507;27;20506;-75
2021/11/09 12:43:40;;;;;;;8.10;2.22;;;12.50;74.50;;;;;;5133875;27;20046;-76
2021/11/09 12:46:12;;;;;;;4.40;1.73;;;12.50;73.10;;;;;;5133830;27;20022;-77
2021/11/09 12:48:39;;;;;;;5.65;2.08;;;12.50;73.40;;;;;;5152511;27;20030;-77
2021/11/09 12:51:12;;;;;;;8.07;2.60;;;12.50;72.80;;;;;;5133428;27;20195;-77
2021/11/09 12:53:45;;;;;;;7.07;1.88;;;12.50;73.10;;;;;;5133806;27;20130;-79
2021/11/09 12:56:15;;;;;;;3.95;1.65;;;12.60;72.90;;;;;;5133335;27;20038;-76
2021/11/09 12:58:51;;;;;;;6.95;2.80;;;12.60;73.20;;;;;;5151914;27;20072;-76
2021/11/09 13:04:03;;;;;;;5.10;1.98;;;12.70;73.80;;;;;;5152499;27;20118;-78
2021/11/09 13:06:51;;;;;;;6.13;2.67;;;12.70;74.40;;;;;;5133413;27;20030;-76
2021/11/09 13:09:20;;;;;;;3.58;1.85;;;12.80;74.40;;;;;;5133401;27;20030;-76
2021/11/09 13:11:51;;;;;;;8.32;2.63;;;12.80;73.60;;;;;;5151971;27;20023;-77
2021/11/09 13:14:18;;;;;;;9.75;3.22;;;12.80;73.80;;;;;;5133307;27;20122;-78
2021/11/09 13:16:49;;;;;;;7.20;2.65;;;12.80;73.50;;;;;;5132976;27;20137;-80
2021/11/09 13:19:17;;;;;;;6.63;3.00;;;12.80;73.60;;;;;;5151963;27;20019;-76
2021/11/09 13:21:52;;;;;;;6.50;2.85;;;12.70;73.40;;;;;;5133328;27;20031;-77
2021/11/09 13:24:20;;;;;;;5.53;2.42;;;12.80;73.90;;;;;;5151556;27;20104;-77
2021/11/09 13:26:53;;;;;;;11.10;2.42;;;12.70;72.70;;;;;;5151407;27;20019;-75
2021/11/09 13:29:21;;;;;;;6.90;3.10;;;12.70;73.50;;;;;;5133128;27;20092;-76
2021/11/09 13:31:47;;;;;;;8.55;3.22;;;12.70;74.60;;;;;;5134489;27;20047;-76
2021/11/09 13:34:12;;;;;;;;;;;12.70;75.70;;;;;;5132445;27;20566;-77
2021/11/09 13:36:38;;;;;;;6.35;3.08;;;12.60;77.10;;;;;;5132201;27;19965;-76
2021/11/09 13:39:04;;;;;;;;;;;12.50;77.40;;;;;;5155278;27;20503;-76
2021/11/09 13:41:33;;;;;;;10.82;3.25;;;12.50;78.00;;;;;;5132159;27;19960;-76
2021/11/09 13:44:07;;;;;;;7.60;3.75;;;12.40;79.10;;;;;;5159138;27;20057;-76
2021/11/09 13:46:36;;;;;;;9.13;3.42;;;12.30;79.50;;;;;;5131753;27;20616;-76
2021/11/09 13:49:09;;;;;;;7.28;3.17;;;12.20;80.60;;;;;;5132338;27;20487;-77
2021/11/09 13:51:48;;;;;;;11.23;3.38;;;12.20;81.60;;;;;;5151062;27;20019;-76
2021/11/09 13:54:21;;;;;;;7.50;3.70;;;12.10;81.50;;;;;;5150987;27;20030;-76
2021/11/09 13:56:51;;;;;;;9.85;4.03;;;12.10;82.30;;;;;;5150147;27;20133;-75
2021/11/09 13:59:24;;;;;;;10.30;3.97;;;12.00;82.80;;;;;;5132400;27;20026;-78
2021/11/09 14:02:02;;;;;;;9.85;4.80;;;12.00;83.00;;;;;;5132457;27;20406;-76
2021/11/09 14:07:41;;;;;;;12.43;4.95;;;11.90;85.00;;;;;;5151282;27;20109;-78
2021/11/09 14:13:28;;;;;;;9.00;5.25;;;11.80;85.90;;;;;;5150655;27;20138;-76
2021/11/09 14:18:18;;;;;;;;;;;11.60;87.70;;;;;;5151272;27;20402;-76
2021/11/09 14:20:55;;;;;;;25.35;18.52;;;11.60;88.70;;;;;;5132099;27;20005;-76
2021/11/09 14:23:42;;;;;;;18.00;12.85;;;11.50;89.50;;;;;;5150454;27;20037;-76
2021/11/09 14:26:25;;;;;;;25.60;16.35;;;11.50;90.10;;;;;;5131848;27;20149;-76
2021/11/09 14:28:55;;;;;;;37.72;23.00;;;11.40;90.00;;;;;;5150353;27;20033;-76
2021/11/09 14:31:26;;;;;;;49.95;32.40;;;11.30;90.00;;;;;;5150475;27;20443;-77
2021/11/09 14:34:10;;;;;;;25.08;17.52;;;11.30;90.30;;;;;;5150305;27;20019;-76
2021/11/09 14:36:36;;;;;;;17.33;13.88;;;11.20;90.60;;;;;;5131739;27;20043;-77
2021/11/09 14:39:20;;;;;;;20.10;9.48;;;11.10;91.00;;;;;;5150163;27;20435;-77
2021/11/09 14:42:27;;;;;;;16.08;11.50;;;11.00;91.30;;;;;;5131827;27;20034;-76
2021/11/09 14:45:48;;;;;;;19.52;14.27;;;10.90;91.50;;;;;;5149990;27;20390;-76
2021/11/09 14:48:18;;;;;;;25.48;13.55;;;10.80;91.90;;;;;;5131246;27;20050;-77
2021/11/09 14:51:05;;;;;;;31.17;25.08;;;10.70;92.10;;;;;;5131614;27;20479;-77
2021/11/09 14:53:37;;;;;;;18.35;10.27;;;10.60;92.60;;;;;;5149986;27;20102;-77
2021/11/09 14:56:12;;;;;;;16.95;11.52;;;10.50;93.10;;;;;;5131323;27;20052;-77
2021/11/09 14:58:41;;;;;;;23.40;19.20;;;10.40;93.60;;;;;;5131783;27;20516;-77
2021/11/09 15:01:38;;;;;;;21.20;17.05;;;10.30;94.20;;;;;;5131377;27;20062;-77
2021/11/09 15:04:35;;;;;;;15.13;9.88;;;10.20;95.10;;;;;;5150292;27;20023;-77
2021/11/09 15:29:15;;;;;;;10.40;5.47;;;9.10;99.90;;;;;;5119419;27;20039;-76
2021/11/09 15:31:47;;;;;;;14.80;7.00;;;9.00;99.90;;;;;;5154896;27;20038;-76
2021/11/09 15:34:52;;;;;;;20.92;11.15;;;8.80;99.90;;;;;;5136399;27;20110;-77
2021/11/09 15:39:50;;;;;;;37.00;23.60;;;8.60;99.90;;;;;;5155520;27;20520;-76
2021/11/09 15:42:16;;;;;;;39.22;25.95;;;8.40;99.90;;;;;;5137618;27;20175;-75
2021/11/09 15:44:43;;;;;;;41.78;28.23;;;8.40;99.90;;;;;;5154934;27;20031;-76
2021/11/09 15:47:10;;;;;;;46.53;23.73;;;8.30;99.90;;;;;;5136905;27;20057;-76
2021/11/09 15:49:40;;;;;;;73.78;31.25;;;8.20;99.90;;;;;;5155703;27;20023;-75
2021/11/09 15:52:06;;;;;;;82.65;34.67;;;8.10;99.90;;;;;;5136815;27;20037;-76
2021/11/09 15:54:31;;;;;;;;;;;8.00;99.90;;;;;;5138536;27;20083;-76
2021/11/09 15:56:57;;;;;;;57.20;29.17;;;7.90;99.90;;;;;;5137024;27;20025;-78
2021/11/09 15:59:23;;;;;;;63.58;30.73;;;7.80;99.90;;;;;;5137601;27;20025;-76
2021/11/09 16:01:49;;;;;;;;;;;7.70;99.90;;;;;;5138185;27;20034;-76
2021/11/09 16:04:14;;;;;;;109.30;27.08;;;7.60;99.90;;;;;;5156153;27;20363;-76
2021/11/09 16:06:42;;;;;;;;;;;7.60;99.90;;;;;;5137850;27;20117;-76